createdAt,value
2022-10-11T19:27:47.214Z,19.45
2022-10-11T19:30:15.752Z,19.91
2022-10-11T19:36:25.736Z,14.41
2022-10-11T19:38:56.666Z,9.79
2022-10-11T19:41:27.371Z,7.61
2022-10-11T19:43:59.434Z,7.30
2022-10-11T19:49:20.333Z,6.42
2022-10-11T19:51:50.638Z,7.44
2022-10-11T19:54:19.115Z,7.16
2022-10-11T19:56:48.350Z,6.83
2022-10-11T19:59:32.976Z,6.57
2022-10-11T20:02:03.632Z,7.10
2022-10-11T20:04:51.469Z,7.24
2022-10-11T20:07:25.292Z,7.44
2022-10-11T20:09:53.356Z,7.59
2022-10-11T20:12:21.774Z,7.39
2022-10-11T20:14:50.071Z,7.81
2022-10-11T20:17:20.574Z,7.51
2022-10-11T20:19:49.905Z,7.26
2022-10-11T20:22:18.411Z,6.94
2022-10-11T20:24:48.021Z,6.79
2022-10-11T20:27:16.275Z,7.20
2022-10-11T20:29:44.564Z,6.58
2022-10-11T20:32:13.067Z,7.19
2022-10-11T20:34:41.260Z,7.35
2022-10-11T20:37:11.639Z,7.44
2022-10-11T20:39:39.648Z,7.32
2022-10-11T20:42:11.782Z,7.61
2022-10-11T20:44:39.985Z,7.40
2022-10-11T20:47:08.657Z,7.18
2022-10-11T20:49:36.783Z,7.11
2022-10-11T20:52:05.605Z,6.83
2022-10-11T20:54:35.747Z,7.37
2022-10-11T20:57:04.616Z,6.60
2022-10-11T20:59:34.776Z,6.66
2022-10-11T21:02:05.890Z,6.72
2022-10-11T21:04:35.979Z,6.75
2022-10-11T21:07:05.400Z,6.27
2022-10-11T21:09:33.440Z,6.32
2022-10-11T21:12:05.142Z,6.58
2022-10-11T21:14:34.587Z,6.79
2022-10-11T21:17:02.558Z,6.67
2022-10-11T21:19:30.563Z,7.17
2022-10-11T21:21:58.490Z,6.67
2022-10-11T21:24:26.651Z,7.05
2022-10-11T21:26:59.590Z,7.09
2022-10-11T21:29:28.604Z,7.13
2022-10-11T21:31:57.988Z,7.31
2022-10-11T21:34:26.077Z,7.10
2022-10-11T21:36:53.997Z,6.72
2022-10-11T21:39:22.128Z,7.07
2022-10-11T21:41:50.097Z,6.85
2022-10-11T21:44:18.265Z,7.01
2022-10-11T21:49:36.853Z,6.64
2022-10-11T21:52:05.275Z,6.03
2022-10-11T21:54:33.407Z,5.88
2022-10-11T21:57:01.744Z,6.38
2022-10-11T21:59:29.711Z,6.36
2022-10-11T22:02:01.618Z,6.59
2022-10-11T22:04:30.141Z,6.65
2022-10-11T22:06:59.639Z,6.62
2022-10-11T22:09:29.766Z,6.52
2022-10-11T22:11:58.111Z,6.59
2022-10-11T22:14:26.223Z,6.54
2022-10-11T22:16:54.239Z,6.20
2022-10-11T22:19:22.314Z,6.41
2022-10-11T22:21:50.545Z,6.42
2022-10-11T22:24:19.997Z,6.61
2022-10-11T22:26:48.091Z,6.43
2022-10-11T22:29:16.079Z,6.49
2022-10-11T22:31:44.128Z,6.43
2022-10-11T22:34:13.515Z,6.62
2022-10-11T22:36:41.519Z,6.50
2022-10-11T22:39:10.156Z,6.52
2022-10-11T22:41:39.675Z,6.33
2022-10-11T22:44:07.886Z,6.40
2022-10-11T22:46:35.929Z,5.86
2022-10-11T22:49:04.207Z,5.69
2022-10-11T22:51:32.283Z,5.74
2022-10-11T22:54:00.306Z,5.94
2022-10-11T22:56:28.445Z,6.05
2022-10-11T22:58:59.200Z,6.47
2022-10-11T23:01:27.232Z,6.17
2022-10-11T23:03:55.285Z,6.36
2022-10-11T23:06:24.547Z,5.68
2022-10-11T23:08:52.498Z,5.72
2022-10-11T23:11:20.547Z,5.71
2022-10-11T23:13:48.549Z,5.56
2022-10-11T23:16:17.981Z,6.00
2022-10-11T23:18:45.988Z,6.02
2022-10-11T23:21:13.934Z,5.95
2022-10-11T23:23:41.949Z,6.29
2022-10-11T23:26:12.660Z,6.44
2022-10-11T23:28:41.109Z,6.40
2022-10-11T23:31:10.988Z,6.19
2022-10-11T23:33:40.387Z,6.21
2022-10-11T23:36:15.106Z,6.02
2022-10-11T23:38:43.185Z,5.60
2022-10-11T23:41:11.587Z,6.22
2022-10-11T23:43:39.571Z,6.12
2022-10-11T23:46:07.728Z,5.58
2022-10-11T23:48:35.774Z,5.63
2022-10-11T23:51:05.328Z,5.76
2022-10-11T23:53:33.548Z,6.04
2022-10-11T23:56:01.622Z,5.81
2022-10-11T23:58:29.667Z,5.97
